Time;durP1;ratioP1;P1;durP2;ratioP2;P2;SDS_P1;SDS_P2;PMS_P1;PMS_P2;Temp;Humidity;BMP_temperature;BMP_pressure;BME280_temperature;BME280_humidity;BME280_pressure;Samples;Min_cycle;Max_cycle;Signal;HPM_P1;HPM_P2
2022/10/06 00:02:38;;;;;;;14.50;7.95;;;;;;;;;;8345618;28;20571;-87
2022/10/06 00:06:41;;;;;;;14.20;7.43;;;;;;;;;;8347702;28;20656;-88
2022/10/06 00:10:44;;;;;;;16.17;7.28;;;;;;;;;;8353008;28;20492;-87
2022/10/06 00:14:48;;;;;;;11.93;7.15;;;;;;;;;;8351828;28;20040;-88
2022/10/06 00:18:50;;;;;;;14.73;6.75;;;;;;;;;;8340349;28;20116;-89
2022/10/06 00:22:53;;;;;;;14.05;7.40;;;;;;;;;;8362150;28;20055;-86
2022/10/06 00:26:55;;;;;;;14.75;7.72;;;;;;;;;;8364140;28;20120;-86
2022/10/06 00:31:01;;;;;;;12.98;7.05;;;;;;;;;;8364622;28;20458;-87
2022/10/06 00:35:04;;;;;;;11.57;6.75;;;;;;;;;;8364596;28;20048;-88
2022/10/06 00:39:07;;;;;;;16.88;7.13;;;;;;;;;;8364234;28;20041;-89
2022/10/06 00:43:40;;;;;;;14.35;7.90;;;;;;;;;;8364538;28;20570;-86
2022/10/06 00:47:45;;;;;;;14.13;7.50;;;;;;;;;;8363883;28;20053;-86
2022/10/06 00:51:51;;;;;;;13.80;7.25;;;;;;;;;;8364025;28;20099;-86
2022/10/06 00:55:54;;;;;;;14.60;7.40;;;;;;;;;;8363778;28;20484;-87
2022/10/06 00:59:56;;;;;;;15.27;8.35;;;;;;;;;;8363650;28;20054;-89
2022/10/06 01:04:06;;;;;;;16.00;7.70;;;;;;;;;;8363799;28;20413;-87
2022/10/06 01:08:08;;;;;;;15.00;7.32;;;;;;;;;;8363398;28;20454;-89
2022/10/06 01:12:11;;;;;;;13.75;7.95;;;;;;;;;;8363358;28;20102;-86
2022/10/06 01:16:18;;;;;;;20.27;7.60;;;;;;;;;;8357739;28;20046;-88
2022/10/06 01:20:23;;;;;;;22.75;8.32;;;;;;;;;;8354773;28;20094;-89
2022/10/06 01:24:27;;;;;;;17.15;8.15;;;;;;;;;;8363076;28;20076;-86
2022/10/06 01:28:30;;;;;;;17.33;8.38;;;;;;;;;;8362894;28;20041;-86
2022/10/06 01:32:35;;;;;;;13.88;7.65;;;;;;;;;;8362707;28;20049;-85
2022/10/06 01:36:40;;;;;;;16.77;7.22;;;;;;;;;;8362664;28;20045;-86
2022/10/06 01:40:44;;;;;;;11.82;7.03;;;;;;;;;;8362618;28;20044;-87
2022/10/06 01:44:46;;;;;;;15.00;8.32;;;;;;;;;;8362254;28;20485;-86
2022/10/06 01:48:49;;;;;;;19.20;8.27;;;;;;;;;;8362299;28;20044;-85
2022/10/06 01:52:51;;;;;;;14.45;6.88;;;;;;;;;;8362423;28;20052;-86
2022/10/06 01:56:55;;;;;;;15.77;7.85;;;;;;;;;;8362297;28;20037;-85
2022/10/06 02:00:58;;;;;;;14.52;7.85;;;;;;;;;;8362210;28;20044;-87
2022/10/06 02:05:00;;;;;;;12.68;6.38;;;;;;;;;;8362111;28;20041;-86
2022/10/06 02:09:03;;;;;;;12.73;7.47;;;;;;;;;;8362545;28;20045;-86
2022/10/06 02:13:07;;;;;;;16.65;7.32;;;;;;;;;;8362190;28;20075;-88
2022/10/06 02:17:10;;;;;;;15.05;7.78;;;;;;;;;;8349537;28;20050;-85
2022/10/06 02:21:18;;;;;;;12.68;7.10;;;;;;;;;;8360590;28;20175;-86
2022/10/06 02:25:20;;;;;;;12.55;6.88;;;;;;;;;;8361857;28;20060;-86
2022/10/06 02:29:24;;;;;;;12.18;7.15;;;;;;;;;;8366076;28;20045;-85
2022/10/06 02:33:27;;;;;;;11.63;7.07;;;;;;;;;;8368352;28;20041;-85
2022/10/06 02:37:29;;;;;;;14.73;7.40;;;;;;;;;;8368176;28;20080;-86
2022/10/06 02:41:32;;;;;;;11.20;6.82;;;;;;;;;;8367865;28;20048;-85
2022/10/06 02:45:37;;;;;;;14.20;6.82;;;;;;;;;;8368072;28;20381;-86
2022/10/06 02:49:39;;;;;;;14.40;6.90;;;;;;;;;;8367590;28;20088;-85
2022/10/06 02:53:42;;;;;;;11.05;5.97;;;;;;;;;;8353925;28;20068;-88
2022/10/06 02:57:45;;;;;;;14.00;6.65;;;;;;;;;;8367670;28;20092;-85
2022/10/06 03:01:48;;;;;;;11.77;6.13;;;;;;;;;;8367256;28;20087;-85
2022/10/06 03:05:59;;;;;;;9.40;5.95;;;;;;;;;;8367472;28;20095;-85
2022/10/06 03:10:01;;;;;;;15.85;6.82;;;;;;;;;;8367214;28;20044;-88
2022/10/06 03:14:04;;;;;;;10.77;5.10;;;;;;;;;;8367074;28;20045;-85
2022/10/06 03:18:08;;;;;;;12.40;6.22;;;;;;;;;;8352935;28;20048;-85
2022/10/06 03:22:11;;;;;;;12.63;6.28;;;;;;;;;;8366700;28;20041;-86
2022/10/06 03:26:16;;;;;;;11.13;6.72;;;;;;;;;;8366751;28;20045;-85
2022/10/06 03:30:18;;;;;;;12.52;6.18;;;;;;;;;;8366662;28;20045;-87
2022/10/06 03:34:22;;;;;;;12.30;6.43;;;;;;;;;;8366582;28;20055;-87
2022/10/06 03:38:25;;;;;;;10.27;6.07;;;;;;;;;;8352442;28;20052;-85
2022/10/06 03:42:27;;;;;;;14.32;6.57;;;;;;;;;;8366200;28;20409;-86
2022/10/06 03:46:33;;;;;;;13.10;6.22;;;;;;;;;;8366023;28;20095;-88
2022/10/06 03:50:37;;;;;;;12.63;6.43;;;;;;;;;;8365864;28;20053;-88
2022/10/06 03:54:39;;;;;;;16.40;6.20;;;;;;;;;;8365717;28;20049;-85
2022/10/06 03:58:44;;;;;;;15.15;6.03;;;;;;;;;;8365768;28;20045;-89
2022/10/06 04:02:47;;;;;;;10.40;5.20;;;;;;;;;;8366158;28;20044;-85
2022/10/06 04:06:51;;;;;;;11.70;5.82;;;;;;;;;;8351658;28;20565;-90
2022/10/06 04:10:54;;;;;;;15.55;7.18;;;;;;;;;;8365389;28;20075;-86
2022/10/06 04:14:56;;;;;;;12.85;6.18;;;;;;;;;;8365342;28;20095;-88
2022/10/06 04:19:00;;;;;;;11.82;6.03;;;;;;;;;;8350924;28;20461;-86
2022/10/06 04:23:04;;;;;;;10.68;6.30;;;;;;;;;;8365728;28;20485;-84
2022/10/06 04:31:28;;;;;;;16.55;9.52;;;;;;;;;;8364794;28;20473;-85
2022/10/06 04:35:31;;;;;;;10.95;5.35;;;;;;;;;;8364680;28;20045;-84
2022/10/06 04:39:36;;;;;;;13.95;5.18;;;;;;;;;;8364324;28;20053;-85
2022/10/06 04:43:39;;;;;;;15.35;7.32;;;;;;;;;;8364375;28;20045;-85
2022/10/06 04:47:41;;;;;;;8.82;5.18;;;;;;;;;;8364345;28;20664;-84
2022/10/06 04:51:44;;;;;;;6.97;4.75;;;;;;;;;;8364463;28;20052;-85
2022/10/06 04:55:48;;;;;;;9.95;6.00;;;;;;;;;;8364434;28;20507;-89
2022/10/06 05:04:10;;;;;;;9.13;4.93;;;;;;;;;;8363603;28;20195;-87
2022/10/06 05:08:13;;;;;;;6.53;4.45;;;;;;;;;;8363567;28;20075;-85
2022/10/06 05:12:17;;;;;;;9.82;4.93;;;;;;;;;;8363268;28;20072;-85
2022/10/06 05:16:19;;;;;;;8.05;4.45;;;;;;;;;;8357706;28;20052;-85
2022/10/06 05:20:22;;;;;;;7.38;4.18;;;;;;;;;;8355284;28;20475;-84
2022/10/06 05:24:24;;;;;;;8.45;5.40;;;;;;;;;;8363008;28;20099;-85
2022/10/06 05:28:30;;;;;;;8.07;4.57;;;;;;;;;;8362922;28;20102;-84
2022/10/06 05:32:32;;;;;;;8.75;4.50;;;;;;;;;;8362927;28;20045;-84
2022/10/06 05:36:34;;;;;;;7.68;4.78;;;;;;;;;;8362560;28;20048;-85
2022/10/06 05:40:37;;;;;;;11.40;4.57;;;;;;;;;;8363215;28;20638;-84
2022/10/06 05:44:41;;;;;;;11.27;4.05;;;;;;;;;;8362432;28;20049;-84
2022/10/06 05:48:46;;;;;;;7.85;4.18;;;;;;;;;;8356228;28;20049;-89
2022/10/06 05:52:48;;;;;;;8.30;3.92;;;;;;;;;;8355560;28;20049;-84
2022/10/06 05:56:51;;;;;;;6.03;3.70;;;;;;;;;;8362251;28;20072;-90
2022/10/06 06:00:55;;;;;;;6.78;4.30;;;;;;;;;;8362287;28;20482;-85
2022/10/06 06:04:57;;;;;;;9.23;3.53;;;;;;;;;;8361783;28;20056;-85
2022/10/06 06:09:01;;;;;;;6.78;3.90;;;;;;;;;;8361966;28;20481;-85
2022/10/06 06:13:04;;;;;;;10.15;3.45;;;;;;;;;;8362376;28;20049;-86
2022/10/06 06:17:08;;;;;;;10.20;4.25;;;;;;;;;;8350098;28;20477;-88
2022/10/06 06:21:11;;;;;;;5.70;3.05;;;;;;;;;;8360426;28;20404;-86
2022/10/06 06:25:14;;;;;;;6.03;3.03;;;;;;;;;;8361954;28;20090;-89
2022/10/06 06:29:16;;;;;;;7.28;3.35;;;;;;;;;;8361722;28;20045;-87
2022/10/06 06:33:21;;;;;;;4.80;2.97;;;;;;;;;;8361705;28;20504;-87
2022/10/06 06:37:23;;;;;;;4.90;3.22;;;;;;;;;;8335914;28;20056;-87
2022/10/06 06:41:27;;;;;;;8.77;3.30;;;;;;;;;;8333434;28;20488;-88
2022/10/06 06:45:30;;;;;;;6.07;3.00;;;;;;;;;;8353733;28;20049;-88
2022/10/06 06:49:34;;;;;;;5.93;3.20;;;;;;;;;;8360078;28;20060;-87
2022/10/06 06:53:37;;;;;;;5.13;2.90;;;;;;;;;;8361685;28;20473;-87
2022/10/06 06:57:41;;;;;;;4.57;2.97;;;;;;;;;;8361326;28;20049;-87
2022/10/06 07:01:46;;;;;;;4.95;3.00;;;;;;;;;;8361117;28;20072;-87
2022/10/06 07:05:49;;;;;;;6.63;3.20;;;;;;;;;;8361095;28;20056;-87
2022/10/06 07:09:52;;;;;;;6.95;3.17;;;;;;;;;;8356797;28;20041;-87
2022/10/06 07:14:00;;;;;;;5.30;2.50;;;;;;;;;;8329108;28;20800;-88
2022/10/06 07:26:48;;;;;;;7.53;3.70;;;;;;;;;;8348168;28;20053;-88
2022/10/06 07:30:51;;;;;;;5.22;2.80;;;;;;;;;;8350374;28;20037;-87
2022/10/06 07:34:59;;;;;;;7.35;3.50;;;;;;;;;;8349335;28;20053;-87
2022/10/06 07:39:09;;;;;;;6.18;3.80;;;;;;;;;;8333784;28;20493;-88
2022/10/06 07:43:14;;;;;;;8.63;3.25;;;;;;;;;;8340848;28;20063;-89
2022/10/06 07:47:20;;;;;;;14.98;3.78;;;;;;;;;;8345768;28;20060;-86
2022/10/06 07:51:30;;;;;;;8.93;3.50;;;;;;;;;;8361514;28;20052;-88
2022/10/06 07:55:37;;;;;;;6.40;3.60;;;;;;;;;;8360313;28;20041;-90
2022/10/06 07:59:44;;;;;;;;;;;;;;;;;;8344689;28;20480;-87
2022/10/06 08:03:49;;;;;;;7.43;4.13;;;;;;;;;;8333198;28;19921;-90
2022/10/06 08:07:53;;;;;;;5.20;3.60;;;;;;;;;;8343214;28;20045;-89
2022/10/06 08:12:31;;;;;;;7.55;4.32;;;;;;;;;;8347390;28;20098;-88
2022/10/06 08:16:22;;;;;;;8.20;3.83;;;;;;;;;;8348284;28;20041;-87
2022/10/06 08:20:26;;;;;;;5.28;3.38;;;;;;;;;;8338428;28;20408;-89
2022/10/06 08:24:29;;;;;;;8.05;3.53;;;;;;;;;;8359621;28;20469;-87
2022/10/06 08:28:34;;;;;;;6.95;3.40;;;;;;;;;;8359593;28;20075;-87
2022/10/06 08:32:37;;;;;;;5.90;3.50;;;;;;;;;;8345060;28;20059;-87
2022/10/06 08:36:43;;;;;;;7.53;3.78;;;;;;;;;;8359841;28;20044;-89
2022/10/06 08:40:47;;;;;;;5.78;3.75;;;;;;;;;;8359690;28;20247;-90
2022/10/06 08:44:56;;;;;;;5.40;3.63;;;;;;;;;;8358726;28;20056;-87
2022/10/06 08:49:00;;;;;;;7.18;3.53;;;;;;;;;;8351638;28;20056;-88
2022/10/06 08:53:07;;;;;;;5.32;3.53;;;;;;;;;;8345274;28;20045;-90
2022/10/06 08:57:19;;;;;;;5.50;3.35;;;;;;;;;;8344997;28;20056;-88
2022/10/06 09:01:25;;;;;;;5.22;2.67;;;;;;;;;;8340319;28;20045;-88
2022/10/06 09:05:33;;;;;;;5.32;2.83;;;;;;;;;;8348959;28;20056;-89
2022/10/06 09:13:53;;;;;;;5.73;3.00;;;;;;;;;;8430680;23;20053;-89
2022/10/06 09:18:02;;;;;;;6.40;3.08;;;;;;;;;;8332667;28;20321;-88
2022/10/06 09:22:19;;;;;;;5.15;2.92;;;;;;;;;;8346718;28;20053;-89
2022/10/06 09:26:28;;;;;;;4.60;2.75;;;;;;;;;;8339473;28;20053;-89
2022/10/06 09:30:30;;;;;;;5.63;3.00;;;;;;;;;;8339489;28;20142;-88
2022/10/06 09:34:39;;;;;;;8.65;2.92;;;;;;;;;;8349318;28;20051;-89
2022/10/06 09:38:54;;;;;;;4.65;2.80;;;;;;;;;;8342884;28;20045;-89
2022/10/06 09:42:57;;;;;;;6.00;2.95;;;;;;;;;;8347699;28;20049;-88
2022/10/06 09:47:00;;;;;;;7.13;2.80;;;;;;;;;;8343797;28;20055;-87
2022/10/06 09:51:17;;;;;;;5.88;2.95;;;;;;;;;;8343611;28;20426;-89
2022/10/06 09:55:21;;;;;;;4.13;2.90;;;;;;;;;;8344473;28;20058;-88
2022/10/06 09:59:30;;;;;;;9.77;3.45;;;;;;;;;;8351265;28;20087;-90
2022/10/06 10:03:50;;;;;;;7.25;2.80;;;;;;;;;;8346579;28;20136;-90
2022/10/06 10:08:05;;;;;;;4.32;2.60;;;;;;;;;;8335870;28;20105;-88
2022/10/06 10:12:26;;;;;;;4.68;2.60;;;;;;;;;;8325226;28;20494;-90
2022/10/06 10:16:33;;;;;;;6.28;2.60;;;;;;;;;;8307887;28;20046;-88
2022/10/06 10:20:38;;;;;;;5.28;2.58;;;;;;;;;;8299680;28;20080;-89
2022/10/06 10:24:54;;;;;;;8.50;3.00;;;;;;;;;;8301037;28;20494;-88
2022/10/06 10:29:13;;;;;;;4.72;2.80;;;;;;;;;;8298569;28;20061;-89
2022/10/06 10:33:24;;;;;;;5.60;2.42;;;;;;;;;;8323960;28;20397;-88
2022/10/06 10:37:33;;;;;;;5.57;2.72;;;;;;;;;;8326358;28;20671;-89
2022/10/06 10:41:46;;;;;;;7.13;2.75;;;;;;;;;;8325792;28;20069;-88
2022/10/06 10:45:53;;;;;;;4.75;2.40;;;;;;;;;;8328522;28;20405;-89
2022/10/06 10:50:00;;;;;;;6.38;2.40;;;;;;;;;;8332071;28;20503;-90
2022/10/06 10:54:06;;;;;;;4.70;2.55;;;;;;;;;;8334841;28;20045;-89
2022/10/06 10:58:18;;;;;;;6.60;2.63;;;;;;;;;;8334849;28;20047;-88
2022/10/06 11:02:22;;;;;;;4.30;2.30;;;;;;;;;;8334534;28;20045;-89
2022/10/06 11:06:51;;;;;;;3.92;2.25;;;;;;;;;;8334435;28;20046;-88
2022/10/06 11:10:58;;;;;;;5.53;2.47;;;;;;;;;;8334183;28;20053;-89
2022/10/06 11:15:07;;;;;;;5.00;2.42;;;;;;;;;;8334157;28;20048;-89
2022/10/06 11:19:19;;;;;;;5.22;3.10;;;;;;;;;;8320160;28;20077;-89
2022/10/06 11:23:39;;;;;;;14.68;5.80;;;;;;;;;;8316313;28;20046;-88
2022/10/06 11:27:51;;;;;;;5.85;3.33;;;;;;;;;;8333752;28;20041;-88
2022/10/06 11:32:08;;;;;;;6.13;3.47;;;;;;;;;;8333717;28;20496;-88
2022/10/06 11:36:15;;;;;;;9.32;5.47;;;;;;;;;;8333376;28;20045;-89
2022/10/06 11:40:31;;;;;;;9.68;6.95;;;;;;;;;;8333510;28;20049;-89
2022/10/06 11:44:41;;;;;;;4.55;2.58;;;;;;;;;;8333268;28;20056;-88
2022/10/06 11:48:46;;;;;;;7.90;3.43;;;;;;;;;;8315281;28;20056;-89
2022/10/06 11:52:53;;;;;;;5.50;3.08;;;;;;;;;;8333107;28;20053;-88
2022/10/06 11:56:55;;;;;;;6.82;3.00;;;;;;;;;;8332853;28;20045;-89
2022/10/06 12:00:58;;;;;;;9.75;3.30;;;;;;;;;;8331863;28;20045;-89
2022/10/06 12:05:33;;;;;;;6.40;3.40;;;;;;;;;;8332607;28;20045;-89
2022/10/06 12:10:08;;;;;;;7.82;3.90;;;;;;;;;;8333232;28;20106;-88
2022/10/06 12:14:22;;;;;;;9.20;3.17;;;;;;;;;;8361412;28;20068;-89
2022/10/06 12:18:35;;;;;;;5.32;3.20;;;;;;;;;;8326513;28;20049;-89
2022/10/06 12:22:46;;;;;;;6.90;3.13;;;;;;;;;;8331988;28;20620;-89
2022/10/06 12:26:57;;;;;;;6.35;3.10;;;;;;;;;;8339037;28;20045;-89
2022/10/06 12:31:25;;;;;;;8.75;3.20;;;;;;;;;;8347905;28;20041;-89
2022/10/06 12:35:32;;;;;;;5.30;2.97;;;;;;;;;;8336228;28;20057;-90
2022/10/06 12:39:36;;;;;;;4.85;3.03;;;;;;;;;;8343584;28;20052;-88
2022/10/06 12:43:57;;;;;;;4.82;3.05;;;;;;;;;;8342068;28;20082;-89
2022/10/06 12:48:02;;;;;;;4.35;2.95;;;;;;;;;;8337215;28;20421;-88
2022/10/06 12:52:09;;;;;;;5.07;3.15;;;;;;;;;;8334258;28;20076;-91
2022/10/06 12:56:27;;;;;;;4.75;3.00;;;;;;;;;;8333485;28;20091;-88
2022/10/06 13:00:34;;;;;;;7.32;3.22;;;;;;;;;;8337631;28;20052;-88
2022/10/06 13:04:40;;;;;;;5.43;3.30;;;;;;;;;;8360539;28;20041;-88
2022/10/06 13:08:42;;;;;;;11.20;3.38;;;;;;;;;;8361099;28;20065;-87
2022/10/06 13:12:49;;;;;;;5.43;3.53;;;;;;;;;;8361119;28;20723;-87
2022/10/06 13:16:51;;;;;;;6.68;3.80;;;;;;;;;;8342268;28;20111;-89
2022/10/06 13:20:55;;;;;;;8.45;3.80;;;;;;;;;;8354723;28;20053;-89
2022/10/06 13:25:00;;;;;;;5.65;3.72;;;;;;;;;;8362909;28;20041;-88
2022/10/06 13:29:04;;;;;;;9.52;3.67;;;;;;;;;;8351039;28;20500;-89
2022/10/06 13:33:07;;;;;;;7.80;3.60;;;;;;;;;;8361539;28;20098;-88
2022/10/06 13:37:14;;;;;;;7.80;4.03;;;;;;;;;;8362820;28;20049;-88
2022/10/06 13:41:23;;;;;;;7.85;4.18;;;;;;;;;;8362727;28;20472;-88
2022/10/06 13:45:30;;;;;;;9.95;4.25;;;;;;;;;;8362607;28;20045;-89
2022/10/06 13:49:35;;;;;;;7.15;3.97;;;;;;;;;;8362657;28;20124;-88
2022/10/06 13:53:38;;;;;;;7.80;3.70;;;;;;;;;;8362467;28;20041;-88
2022/10/06 13:57:43;;;;;;;5.68;3.70;;;;;;;;;;8348521;28;20049;-88
2022/10/06 14:01:47;;;;;;;6.95;4.05;;;;;;;;;;8362257;28;20500;-88
2022/10/06 14:05:51;;;;;;;8.77;4.35;;;;;;;;;;8362389;28;20049;-88
2022/10/06 14:09:53;;;;;;;10.57;4.85;;;;;;;;;;8362067;28;20052;-88
2022/10/06 14:14:00;;;;;;;13.45;4.65;;;;;;;;;;8334038;28;20069;-87
2022/10/06 14:18:05;;;;;;;8.00;5.07;;;;;;;;;;8315033;28;20072;-88
2022/10/06 14:22:33;;;;;;;10.70;4.60;;;;;;;;;;8328823;28;20386;-89
2022/10/06 14:26:36;;;;;;;9.38;4.50;;;;;;;;;;8335418;28;20144;-89
2022/10/06 14:30:39;;;;;;;8.10;4.30;;;;;;;;;;8314791;28;20459;-89
2022/10/06 14:34:43;;;;;;;11.65;4.72;;;;;;;;;;8306739;28;20045;-89
2022/10/06 14:38:47;;;;;;;9.00;4.90;;;;;;;;;;8319872;28;20053;-89
2022/10/06 14:42:50;;;;;;;10.75;5.13;;;;;;;;;;8313386;28;20488;-90
2022/10/06 14:46:53;;;;;;;9.88;5.47;;;;;;;;;;8323169;28;20049;-90
2022/10/06 14:51:01;;;;;;;12.27;5.85;;;;;;;;;;8327577;28;20056;-90
2022/10/06 14:55:04;;;;;;;11.23;5.50;;;;;;;;;;8315199;28;20116;-89
2022/10/06 14:59:08;;;;;;;10.38;6.47;;;;;;;;;;8294877;28;20084;-89
2022/10/06 15:03:10;;;;;;;10.93;5.28;;;;;;;;;;8309722;28;20053;-89
2022/10/06 15:11:37;;;;;;;12.23;5.18;;;;;;;;;;8294410;28;20053;-90
2022/10/06 15:15:40;;;;;;;11.93;4.53;;;;;;;;;;8311504;28;20048;-88
2022/10/06 15:19:42;;;;;;;8.10;3.83;;;;;;;;;;8316159;28;20045;-89
2022/10/06 15:23:47;;;;;;;8.68;3.83;;;;;;;;;;8314041;28;20452;-90
2022/10/06 15:32:10;;;;;;;6.95;3.78;;;;;;;;;;8321082;28;20049;-89
2022/10/06 15:36:17;;;;;;;7.82;4.03;;;;;;;;;;8298912;28;20076;-88
2022/10/06 15:40:21;;;;;;;5.85;3.72;;;;;;;;;;8318193;28;20098;-90
2022/10/06 15:44:24;;;;;;;7.43;4.05;;;;;;;;;;8319550;28;20137;-91
2022/10/06 15:48:27;;;;;;;12.90;5.25;;;;;;;;;;8324985;28;20564;-89
2022/10/06 15:52:32;;;;;;;9.75;5.63;;;;;;;;;;8313529;28;20133;-89
2022/10/06 15:56:37;;;;;;;13.48;6.70;;;;;;;;;;8307870;28;20560;-89
2022/10/06 16:00:39;;;;;;;12.35;6.00;;;;;;;;;;8310450;28;20420;-89
2022/10/06 16:04:55;;;;;;;8.52;5.85;;;;;;;;;;8317394;28;20050;-89
2022/10/06 16:08:57;;;;;;;10.40;5.82;;;;;;;;;;8303012;28;20054;-90
2022/10/06 16:13:01;;;;;;;12.15;6.50;;;;;;;;;;8324521;28;20501;-88
2022/10/06 16:17:05;;;;;;;21.23;12.73;;;;;;;;;;8330437;28;20049;-89
2022/10/06 16:21:08;;;;;;;22.23;12.65;;;;;;;;;;8357341;28;20516;-88
2022/10/06 16:25:10;;;;;;;19.27;11.38;;;;;;;;;;8344941;28;20044;-88
2022/10/06 16:29:14;;;;;;;22.20;12.02;;;;;;;;;;8343715;28;20051;-88
2022/10/06 16:33:17;;;;;;;23.05;12.15;;;;;;;;;;8347509;28;20099;-89
2022/10/06 16:37:19;;;;;;;22.50;12.18;;;;;;;;;;8341216;28;20042;-89
2022/10/06 16:41:22;;;;;;;27.48;13.45;;;;;;;;;;8353608;28;20040;-89
2022/10/06 16:45:27;;;;;;;31.33;16.35;;;;;;;;;;8344655;28;20045;-90
2022/10/06 16:49:29;;;;;;;32.78;15.98;;;;;;;;;;8345899;28;20087;-89
2022/10/06 16:53:37;;;;;;;27.70;14.35;;;;;;;;;;8346844;28;20551;-89
2022/10/06 16:57:39;;;;;;;36.88;22.30;;;;;;;;;;8338864;28;20045;-90
2022/10/06 17:01:44;;;;;;;29.73;17.58;;;;;;;;;;8347060;28;20410;-89
2022/10/06 17:05:48;;;;;;;28.52;18.15;;;;;;;;;;8334598;28;20110;-90
2022/10/06 17:09:50;;;;;;;28.00;17.52;;;;;;;;;;8343983;28;20520;-90
2022/10/06 17:13:55;;;;;;;27.77;18.27;;;;;;;;;;8353991;28;20053;-90
2022/10/06 17:17:59;;;;;;;27.35;18.35;;;;;;;;;;8331146;28;20050;-90
2022/10/06 17:22:01;;;;;;;35.00;18.77;;;;;;;;;;8347811;28;20052;-89
2022/10/06 17:26:07;;;;;;;43.85;23.25;;;;;;;;;;8342011;28;20058;-90
2022/10/06 17:30:11;;;;;;;39.45;21.67;;;;;;;;;;8351603;28;20076;-89
2022/10/06 17:34:17;;;;;;;43.22;23.35;;;;;;;;;;8335803;28;20045;-89
2022/10/06 17:38:20;;;;;;;37.60;20.85;;;;;;;;;;8342067;28;20407;-90
2022/10/06 17:42:24;;;;;;;32.42;18.98;;;;;;;;;;8341145;28;20041;-90
2022/10/06 17:46:27;;;;;;;28.70;17.13;;;;;;;;;;8334462;28;20114;-90
2022/10/06 17:50:31;;;;;;;37.70;18.90;;;;;;;;;;8338064;28;20037;-89
2022/10/06 17:54:33;;;;;;;36.70;19.58;;;;;;;;;;8350735;28;20127;-88
2022/10/06 17:58:36;;;;;;;49.88;28.65;;;;;;;;;;8359584;28;20094;-88
2022/10/06 18:02:40;;;;;;;88.65;42.10;;;;;;;;;;8337342;28;20469;-89
2022/10/06 18:06:45;;;;;;;130.10;64.30;;;;;;;;;;8343444;28;20131;-90
2022/10/06 18:15:11;;;;;;;51.10;25.63;;;;;;;;;;8304116;28;20045;-89
2022/10/06 18:19:19;;;;;;;44.97;22.10;;;;;;;;;;8311289;28;20088;-89
2022/10/06 18:23:26;;;;;;;46.95;22.55;;;;;;;;;;8328758;28;20493;-89
2022/10/06 18:27:29;;;;;;;52.97;21.85;;;;;;;;;;8328781;28;20046;-90
2022/10/06 18:31:35;;;;;;;49.70;23.63;;;;;;;;;;8305702;28;20471;-88
2022/10/06 18:35:38;;;;;;;48.88;24.08;;;;;;;;;;8295745;28;20050;-88
2022/10/06 18:39:42;;;;;;;43.22;21.92;;;;;;;;;;8326484;28;20038;-88
2022/10/06 18:43:46;;;;;;;49.45;20.80;;;;;;;;;;8299750;28;20050;-92
2022/10/06 18:52:10;;;;;;;67.80;32.00;;;;;;;;;;8328400;28;20045;-89
2022/10/06 18:56:17;;;;;;;80.40;34.47;;;;;;;;;;8328382;28;20045;-89
2022/10/06 19:00:20;;;;;;;72.95;30.35;;;;;;;;;;8313281;28;20046;-89
2022/10/06 19:04:25;;;;;;;40.47;22.88;;;;;;;;;;8309148;28;20057;-88
2022/10/06 19:08:29;;;;;;;243.77;106.90;;;;;;;;;;8314236;28;20504;-88
2022/10/06 19:12:34;;;;;;;183.25;84.35;;;;;;;;;;8333441;28;20068;-89
2022/10/06 19:16:40;;;;;;;169.73;82.10;;;;;;;;;;8330285;28;20056;-89
2022/10/06 19:20:50;;;;;;;152.35;72.68;;;;;;;;;;8303885;28;20049;-88
2022/10/06 19:24:53;;;;;;;116.60;55.88;;;;;;;;;;8315391;28;20060;-89
2022/10/06 19:28:59;;;;;;;153.80;83.38;;;;;;;;;;8303809;28;20429;-88
2022/10/06 19:33:03;;;;;;;149.13;77.45;;;;;;;;;;8331996;28;20037;-87
2022/10/06 19:37:06;;;;;;;137.75;70.22;;;;;;;;;;8333543;28;20520;-89
2022/10/06 19:45:35;;;;;;;93.32;44.95;;;;;;;;;;8277125;28;20060;-87
2022/10/06 19:49:38;;;;;;;218.38;97.68;;;;;;;;;;8333295;28;20049;-87
2022/10/06 19:53:42;;;;;;;243.20;106.32;;;;;;;;;;8333544;28;20459;-87
2022/10/06 19:57:45;;;;;;;229.35;104.80;;;;;;;;;;8333005;28;20080;-88
2022/10/06 20:01:51;;;;;;;198.73;91.13;;;;;;;;;;8332849;28;20045;-87
2022/10/06 20:05:54;;;;;;;134.80;60.92;;;;;;;;;;8332727;28;20061;-88
2022/10/06 20:09:56;;;;;;;180.77;77.63;;;;;;;;;;8332626;28;20053;-87
2022/10/06 20:13:59;;;;;;;136.43;59.15;;;;;;;;;;8332179;28;20111;-87
2022/10/06 20:18:03;;;;;;;87.93;42.42;;;;;;;;;;8318374;28;20046;-88
2022/10/06 20:22:05;;;;;;;236.95;100.40;;;;;;;;;;8331468;28;20113;-87
2022/10/06 20:26:13;;;;;;;254.35;103.60;;;;;;;;;;8331834;28;20049;-87
2022/10/06 20:30:15;;;;;;;171.82;78.82;;;;;;;;;;8332009;28;20128;-87
2022/10/06 20:34:22;;;;;;;205.25;81.90;;;;;;;;;;8331769;28;20054;-87
2022/10/06 20:40:37;;;;;;;167.10;67.35;;;;;;;;;;8318113;28;20103;-87
2022/10/06 20:42:48;;;;;;;97.35;38.90;;;;;;;;;;8331493;28;20167;-88
2022/10/06 20:46:53;;;;;;;66.53;28.98;;;;;;;;;;8331244;28;20052;-88
2022/10/06 20:50:58;;;;;;;91.38;39.53;;;;;;;;;;8322396;28;20481;-88
2022/10/06 20:55:00;;;;;;;84.45;28.77;;;;;;;;;;8328057;28;20071;-87
2022/10/06 20:59:06;;;;;;;39.25;17.45;;;;;;;;;;8331105;28;20136;-87
2022/10/06 21:03:08;;;;;;;100.50;29.23;;;;;;;;;;8330925;28;20045;-88
2022/10/06 21:07:13;;;;;;;94.80;28.27;;;;;;;;;;8330744;28;20057;-87
2022/10/06 21:11:17;;;;;;;36.42;16.95;;;;;;;;;;8330718;28;20061;-88
2022/10/06 21:15:20;;;;;;;105.03;26.15;;;;;;;;;;8330355;28;20495;-87
2022/10/06 21:19:23;;;;;;;80.88;22.58;;;;;;;;;;8316403;28;20103;-87
2022/10/06 21:23:28;;;;;;;58.83;18.50;;;;;;;;;;8330187;28;20048;-87
2022/10/06 21:27:30;;;;;;;37.83;16.48;;;;;;;;;;8330138;28;20053;-87
2022/10/06 21:31:33;;;;;;;42.45;15.57;;;;;;;;;;8329942;28;20041;-87
2022/10/06 21:35:35;;;;;;;292.02;98.47;;;;;;;;;;8329021;28;20052;-87
2022/10/06 21:39:40;;;;;;;276.92;89.90;;;;;;;;;;8329677;28;20042;-87
2022/10/06 21:43:43;;;;;;;273.27;84.78;;;;;;;;;;8315757;28;20136;-87
2022/10/06 21:47:45;;;;;;;480.83;176.68;;;;;;;;;;8329557;28;20049;-87
2022/10/06 21:51:49;;;;;;;160.55;63.53;;;;;;;;;;8329503;28;20489;-87
2022/10/06 21:55:55;;;;;;;167.35;64.40;;;;;;;;;;8329651;28;20497;-87
2022/10/06 21:59:57;;;;;;;48.00;21.70;;;;;;;;;;8329431;28;20128;-87
2022/10/06 22:04:00;;;;;;;226.95;59.13;;;;;;;;;;8329316;28;20181;-88
2022/10/06 22:08:02;;;;;;;53.85;21.23;;;;;;;;;;8329282;28;20054;-87
2022/10/06 22:12:07;;;;;;;122.80;35.13;;;;;;;;;;8328933;28;20654;-86
2022/10/06 22:16:10;;;;;;;146.20;51.47;;;;;;;;;;8321248;28;20042;-87
2022/10/06 22:20:13;;;;;;;141.23;59.17;;;;;;;;;;8319713;28;20509;-87
2022/10/06 22:24:17;;;;;;;102.88;50.40;;;;;;;;;;8328682;28;20080;-87
2022/10/06 22:28:21;;;;;;;64.13;26.45;;;;;;;;;;8328980;28;20042;-87
2022/10/06 22:32:24;;;;;;;52.85;21.67;;;;;;;;;;8328930;28;20049;-87
2022/10/06 22:36:27;;;;;;;45.95;21.88;;;;;;;;;;8328684;28;20038;-87
2022/10/06 22:40:31;;;;;;;47.53;17.35;;;;;;;;;;8326821;28;20049;-87
2022/10/06 22:44:35;;;;;;;38.45;15.20;;;;;;;;;;8329919;28;20053;-87
2022/10/06 22:48:38;;;;;;;77.22;23.33;;;;;;;;;;8335123;28;20048;-87
2022/10/06 22:52:41;;;;;;;43.38;17.92;;;;;;;;;;8334930;28;20056;-87
2022/10/06 22:56:43;;;;;;;32.35;15.93;;;;;;;;;;8334828;28;20072;-87
2022/10/06 23:00:47;;;;;;;56.65;19.85;;;;;;;;;;8334782;28;20408;-87
2022/10/06 23:04:49;;;;;;;54.78;22.00;;;;;;;;;;8334729;28;20045;-86
2022/10/06 23:08:52;;;;;;;44.85;18.98;;;;;;;;;;8334453;28;20473;-88
2022/10/06 23:12:55;;;;;;;33.15;14.20;;;;;;;;;;8334312;28;20195;-87
2022/10/06 23:16:59;;;;;;;37.60;14.45;;;;;;;;;;8323529;28;20049;-87
2022/10/06 23:21:06;;;;;;;32.88;16.35;;;;;;;;;;8331236;28;20120;-87
2022/10/06 23:25:09;;;;;;;30.65;14.23;;;;;;;;;;8334014;28;20469;-87
2022/10/06 23:29:12;;;;;;;31.38;14.10;;;;;;;;;;8333947;28;20107;-86
2022/10/06 23:33:16;;;;;;;51.50;18.63;;;;;;;;;;8333639;28;20049;-86
2022/10/06 23:37:18;;;;;;;36.92;15.10;;;;;;;;;;8333647;28;20042;-87
2022/10/06 23:41:21;;;;;;;35.53;13.40;;;;;;;;;;8333343;28;20049;-87
2022/10/06 23:45:23;;;;;;;29.88;12.73;;;;;;;;;;8333442;28;20052;-86
2022/10/06 23:49:27;;;;;;;33.70;13.48;;;;;;;;;;8333289;28;20405;-86
2022/10/06 23:53:31;;;;;;;28.90;13.60;;;;;;;;;;8333065;28;20076;-87
2022/10/06 23:57:33;;;;;;;39.95;16.70;;;;;;;;;;8331984;28;20045;-87
